Time;durP1;ratioP1;P1;durP2;ratioP2;P2;SDS_P1;SDS_P2;PMS_P1;PMS_P2;Temp;Humidity;BMP_temperature;BMP_pressure;BME280_temperature;BME280_humidity;BME280_pressure;Samples;Min_cycle;Max_cycle;Signal;HPM_P1;HPM_P2
2022/06/06 00:01:46;;;;;;;;;;;;;;;;;;5111871;28;1045;-64
2022/06/06 00:04:12;;;;;;;;;;;;;;;;;;5112310;28;742;-64
2022/06/06 00:06:39;;;;;;;;;;;;;;;;;;5111856;28;1021;-64
2022/06/06 00:09:05;;;;;;;;;;;;;;;;;;5110782;28;1209;-64
2022/06/06 00:11:33;;;;;;;;;;;;;;;;;;5110330;28;1253;-64
2022/06/06 00:13:59;;;;;;;;;;;;;;;;;;5110069;28;1918;-64
2022/06/06 00:16:24;;;;;;;;;;;;;;;;;;5111487;28;1014;-64
2022/06/06 00:18:50;;;;;;;;;;;;;;;;;;5112252;28;860;-64
2022/06/06 00:21:15;;;;;;;;;;;;;;;;;;5111977;28;852;-64
2022/06/06 00:23:41;;;;;;;;;;;;;;;;;;5111333;28;793;-64
2022/06/06 00:26:07;;;;;;;;;;;;;;;;;;5110613;28;1284;-64
2022/06/06 00:28:33;;;;;;;;;;;;;;;;;;5110392;28;836;-64
2022/06/06 00:34:48;;;;;;;;;;;;;;;;;;5111608;28;1174;-64
2022/06/06 00:36:31;;;;;;;;;;;;;;;;;;5112152;28;630;-64
2022/06/06 00:38:56;;;;;;;;;;;;;;;;;;5111961;28;848;-64
2022/06/06 00:41:21;;;;;;;;;;;;;;;;;;5112018;28;805;-64
2022/06/06 00:44:00;;;;;;;;;;;;;;;;;;5110829;28;1281;-64
2022/06/06 00:46:26;;;;;;;;;;;;;;;;;;5110429;28;1246;-64
2022/06/06 00:48:51;;;;;;;;;;;;;;;;;;5111470;28;1010;-64
2022/06/06 00:51:17;;;;;;;;;;;;;;;;;;5111660;28;986;-64
2022/06/06 00:53:42;;;;;;;;;;;;;;;;;;5110370;28;1961;-64
2022/06/06 00:56:27;;;;;;;;;;;;;;;;;;5111732;28;911;-64
2022/06/06 00:58:54;;;;;;;;;;;;;;;;;;5110878;28;1608;-65
2022/06/06 01:01:20;;;;;;;;;;;;;;;;;;5109653;28;1169;-65
2022/06/06 01:03:46;;;;;;;;;;;;;;;;;;5109631;28;793;-64
2022/06/06 01:06:13;;;;;;;;;;;;;;;;;;5109908;28;1031;-64
2022/06/06 01:08:39;;;;;;;;;;;;;;;;;;5111298;28;900;-65
2022/06/06 01:11:05;;;;;;;;;;;;;;;;;;5111298;28;1013;-64
2022/06/06 01:13:31;;;;;;;;;;;;;;;;;;5108989;28;1890;-64
2022/06/06 01:16:15;;;;;;;;;;;;;;;;;;5111110;28;848;-64
2022/06/06 01:18:46;;;;;;;;;;;;;;;;;;5109892;28;1462;-64
2022/06/06 01:21:30;;;;;;;;;;;;;;;;;;5111175;28;923;-64
2022/06/06 01:24:01;;;;;;;;;;;;;;;;;;5111541;28;1034;-65
2022/06/06 01:26:35;;;;;;;;;;;;;;;;;;5110973;28;773;-64
2022/06/06 01:29:01;;;;;;;;;;;;;;;;;;5111470;28;959;-64
2022/06/06 01:31:29;;;;;;;;;;;;;;;;;;5111620;28;793;-64
2022/06/06 01:33:59;;;;;;;;;;;;;;;;;;5111570;28;1880;-65
2022/06/06 01:36:27;;;;;;;;;;;;;;;;;;5111662;28;832;-65
2022/06/06 01:38:52;;;;;;;;;;;;;;;;;;5110108;28;1182;-64
2022/06/06 01:41:25;;;;;;;;;;;;;;;;;;5115850;28;749;-64
2022/06/06 01:43:57;;;;;;;;;;;;;;;;;;5113909;28;1293;-64
2022/06/06 01:46:26;;;;;;;;;;;;;;;;;;5115036;28;990;-65
2022/06/06 01:48:51;;;;;;;;;;;;;;;;;;5114650;28;832;-65
2022/06/06 01:51:21;;;;;;;;;;;;;;;;;;5114760;28;998;-65
2022/06/06 01:53:47;;;;;;;;;;;;;;;;;;5114743;28;1890;-65
2022/06/06 01:56:15;;;;;;;;;;;;;;;;;;5114514;28;821;-65
2022/06/06 01:58:40;;;;;;;;;;;;;;;;;;5113075;28;1501;-65
2022/06/06 02:01:05;;;;;;;;;;;;;;;;;;5114291;28;867;-65
2022/06/06 02:03:31;;;;;;;;;;;;;;;;;;5113844;28;812;-65
2022/06/06 02:05:57;;;;;;;;;;;;;;;;;;5114139;28;867;-66
2022/06/06 02:08:22;;;;;;;;;;;;;;;;;;5114267;27;891;-65
2022/06/06 02:10:47;;;;;;;;;;;;;;;;;;5114452;28;987;-65
2022/06/06 02:13:13;;;;;;;;;;;;;;;;;;5112426;28;1281;-65
2022/06/06 02:15:39;;;;;;;;;;;;;;;;;;5114133;28;1973;-65
2022/06/06 02:18:05;;;;;;;;;;;;;;;;;;5114681;28;1062;-65
2022/06/06 02:20:31;;;;;;;;;;;;;;;;;;5114426;28;923;-65
2022/06/06 02:22:56;;;;;;;;;;;;;;;;;;5112861;28;1446;-66
2022/06/06 02:25:22;;;;;;;;;;;;;;;;;;5114219;27;903;-65
2022/06/06 02:27:48;;;;;;;;;;;;;;;;;;5113099;28;1274;-65
2022/06/06 02:30:15;;;;;;;;;;;;;;;;;;5114273;28;852;-65
2022/06/06 02:32:42;;;;;;;;;;;;;;;;;;5114684;28;903;-65
2022/06/06 02:35:09;;;;;;;;;;;;;;;;;;5114318;28;1894;-65
2022/06/06 02:37:34;;;;;;;;;;;;;;;;;;5095394;28;1521;-65
2022/06/06 02:39:59;;;;;;;;;;;;;;;;;;5113638;28;844;-65
2022/06/06 02:42:24;;;;;;;;;;;;;;;;;;5112132;28;1242;-66
2022/06/06 02:44:50;;;;;;;;;;;;;;;;;;5113547;28;927;-65
2022/06/06 02:47:15;;;;;;;;;;;;;;;;;;5112172;28;1181;-65
2022/06/06 02:49:40;;;;;;;;;;;;;;;;;;5113629;28;777;-65
2022/06/06 02:52:06;;;;;;;;;;;;;;;;;;5111137;28;895;-65
2022/06/06 02:54:31;;;;;;;;;;;;;;;;;;5113164;28;2025;-65
2022/06/06 02:56:58;;;;;;;;;;;;;;;;;;5113439;28;844;-65
2022/06/06 02:59:25;;;;;;;;;;;;;;;;;;5113096;28;1092;-65
2022/06/06 03:01:51;;;;;;;;;;;;;;;;;;5114034;28;840;-65
2022/06/06 03:04:17;;;;;;;;;;;;;;;;;;5112230;28;1358;-65
2022/06/06 03:06:45;;;;;;;;;;;;;;;;;;5113351;28;935;-65
2022/06/06 03:09:10;;;;;;;;;;;;;;;;;;5113554;28;856;-65
2022/06/06 03:11:56;;;;;;;;;;;;;;;;;;5113451;28;1058;-66
2022/06/06 03:14:31;;;;;;;;;;;;;;;;;;5112827;28;1914;-65
2022/06/06 03:22:45;;;;;;;;;;;;;;;;;;5113421;28;740;-65
2022/06/06 03:25:30;;;;;;;;;;;;;;;;;;5113129;28;781;-65
2022/06/06 03:28:14;;;;;;;;;;;;;;;;;;5111957;28;1221;-65
2022/06/06 03:30:57;;;;;;;;;;;;;;;;;;5112519;28;1010;-65
2022/06/06 03:33:23;;;;;;;;;;;;;;;;;;5112278;28;836;-65
2022/06/06 03:35:48;;;;;;;;;;;;;;;;;;5112418;28;1901;-65
2022/06/06 03:38:32;;;;;;;;;;;;;;;;;;5112123;28;891;-65
2022/06/06 03:41:00;;;;;;;;;;;;;;;;;;5113089;28;902;-65
2022/06/06 03:43:36;;;;;;;;;;;;;;;;;;5111792;28;890;-65
2022/06/06 03:46:29;;;;;;;;;;;;;;;;;;5112697;28;757;-65
2022/06/06 03:49:09;;;;;;;;;;;;;;;;;;5096616;28;1181;-65
2022/06/06 03:51:44;;;;;;;;;;;;;;;;;;5112787;28;1078;-65
2022/06/06 03:54:24;;;;;;;;;;;;;;;;;;5112719;28;1893;-65
2022/06/06 03:56:52;;;;;;;;;;;;;;;;;;5112988;28;899;-65
2022/06/06 03:59:19;;;;;;;;;;;;;;;;;;5112238;28;931;-65
2022/06/06 04:01:44;;;;;;;;;;;;;;;;;;5112272;28;839;-65
2022/06/06 04:04:10;;;;;;;;;;;;;;;;;;5112262;28;954;-65
2022/06/06 04:06:36;;;;;;;;;;;;;;;;;;5112189;28;788;-65
2022/06/06 04:09:02;;;;;;;;;;;;;;;;;;5093915;28;1349;-65
2022/06/06 04:11:27;;;;;;;;;;;;;;;;;;5112032;28;915;-65
2022/06/06 04:13:58;;;;;;;;;;;;;;;;;;5112213;28;1910;-65
2022/06/06 04:16:26;;;;;;;;;;;;;;;;;;5111835;28;1177;-65
2022/06/06 04:18:55;;;;;;;;;;;;;;;;;;5110271;28;1405;-64
2022/06/06 04:21:20;;;;;;;;;;;;;;;;;;5111954;28;1002;-65
2022/06/06 04:24:04;;;;;;;;;;;;;;;;;;5110352;28;1233;-65
2022/06/06 04:26:29;;;;;;;;;;;;;;;;;;5111145;28;983;-65
2022/06/06 04:28:58;;;;;;;;;;;;;;;;;;5111980;28;793;-65
2022/06/06 04:31:32;;;;;;;;;;;;;;;;;;5111188;28;895;-65
2022/06/06 04:34:03;;;;;;;;;;;;;;;;;;5112079;28;1906;-65
2022/06/06 04:36:47;;;;;;;;;;;;;;;;;;5109564;28;1451;-65
2022/06/06 04:39:24;;;;;;;;;;;;;;;;;;5111109;28;971;-65
2022/06/06 04:41:59;;;;;;;;;;;;;;;;;;5112029;28;888;-65
2022/06/06 04:44:25;;;;;;;;;;;;;;;;;;5111433;28;905;-65
2022/06/06 04:47:03;;;;;;;;;;;;;;;;;;5111707;28;832;-65
2022/06/06 04:49:29;;;;;;;;;;;;;;;;;;5109582;28;844;-64
2022/06/06 04:51:56;;;;;;;;;;;;;;;;;;5110732;28;1151;-64
2022/06/06 04:54:23;;;;;;;;;;;;;;;;;;5109792;28;1906;-64
2022/06/06 04:56:49;;;;;;;;;;;;;;;;;;5110256;28;1303;-65
2022/06/06 04:59:16;;;;;;;;;;;;;;;;;;5111953;28;884;-64
2022/06/06 05:01:41;;;;;;;;;;;;;;;;;;5111751;28;829;-64
2022/06/06 05:04:07;;;;;;;;;;;;;;;;;;5110859;28;1216;-64
2022/06/06 05:06:41;;;;;;;;;;;;;;;;;;5111143;28;899;-63
2022/06/06 05:09:33;;;;;;;;;;;;;;;;;;5092679;28;1186;-64
2022/06/06 05:12:18;;;;;;;;;;;;;;;;;;5100255;28;1144;-63
2022/06/06 05:14:43;;;;;;;;;;;;;;;;;;5090508;28;1913;-63
2022/06/06 05:17:16;;;;;;;;;;;;;;;;;;5114353;28;1144;-64
2022/06/06 05:19:56;;;;;;;;;;;;;;;;;;5114565;28;848;-64
2022/06/06 05:22:37;;;;;;;;;;;;;;;;;;5114913;28;950;-64
2022/06/06 05:25:09;;;;;;;;;;;;;;;;;;5113713;28;1096;-64
2022/06/06 05:27:41;;;;;;;;;;;;;;;;;;5114921;28;828;-65
2022/06/06 05:30:16;;;;;;;;;;;;;;;;;;5113753;28;1272;-66
2022/06/06 05:33:00;;;;;;;;;;;;;;;;;;5116159;28;919;-66
2022/06/06 05:35:35;;;;;;;;;;;;;;;;;;5115869;28;1890;-66
2022/06/06 05:38:33;;;;;;;;;;;;;;;;;;5115736;28;902;-66
2022/06/06 05:41:04;;;;;;;;;;;;;;;;;;5091103;27;1241;-66
2022/06/06 05:43:40;;;;;;;;;;;;;;;;;;5114646;28;899;-66
2022/06/06 05:46:12;;;;;;;;;;;;;;;;;;5115723;28;868;-66
2022/06/06 05:48:37;;;;;;;;;;;;;;;;;;5115039;28;1036;-66
2022/06/06 05:51:21;;;;;;;;;;;;;;;;;;5113696;28;1550;-65
2022/06/06 05:54:05;;;;;;;;;;;;;;;;;;5114607;28;1905;-66
2022/06/06 05:56:49;;;;;;;;;;;;;;;;;;5112690;28;1202;-66
2022/06/06 05:59:17;;;;;;;;;;;;;;;;;;5114736;28;777;-66
2022/06/06 06:01:48;;;;;;;;;;;;;;;;;;5113905;28;761;-66
2022/06/06 06:04:31;;;;;;;;;;;;;;;;;;5114479;28;840;-66
2022/06/06 06:07:16;;;;;;;;;;;;;;;;;;5114379;28;836;-66
2022/06/06 06:09:41;;;;;;;;;;;;;;;;;;5113853;28;836;-66
2022/06/06 06:12:34;;;;;;;;;;;;;;;;;;5112821;28;1266;-66
2022/06/06 06:15:03;;;;;;;;;;;;;;;;;;5097335;28;1910;-66
2022/06/06 06:17:31;;;;;;;;;;;;;;;;;;5113738;28;896;-66
2022/06/06 06:19:56;;;;;;;;;;;;;;;;;;5114051;28;836;-66
2022/06/06 06:22:24;;;;;;;;;;;;;;;;;;5113883;28;918;-66
2022/06/06 06:24:50;;;;;;;;;;;;;;;;;;5112329;28;1347;-66
2022/06/06 06:27:17;;;;;;;;;;;;;;;;;;5112962;28;963;-66
2022/06/06 06:29:42;;;;;;;;;;;;;;;;;;5113610;28;895;-65
2022/06/06 06:32:33;;;;;;;;;;;;;;;;;;5114585;28;1003;-66
2022/06/06 06:35:16;;;;;;;;;;;;;;;;;;5112283;28;1906;-66
2022/06/06 06:37:51;;;;;;;;;;;;;;;;;;5113827;28;986;-66
2022/06/06 06:40:34;;;;;;;;;;;;;;;;;;5113686;28;852;-66
2022/06/06 06:43:18;;;;;;;;;;;;;;;;;;5114341;28;888;-66
2022/06/06 06:45:49;;;;;;;;;;;;;;;;;;5113612;28;864;-67
2022/06/06 06:48:30;;;;;;;;;;;;;;;;;;5113637;28;919;-64
2022/06/06 06:50:59;;;;;;;;;;;;;;;;;;5113692;28;947;-68
2022/06/06 06:53:30;;;;;;;;;;;;;;;;;;5113380;28;907;-66
2022/06/06 06:56:00;;;;;;;;;;;;;;;;;;5113497;28;1985;-66
2022/06/06 06:58:38;;;;;;;;;;;;;;;;;;5113469;28;840;-66
2022/06/06 07:01:05;;;;;;;;;;;;;;;;;;5113571;28;911;-66
2022/06/06 07:09:53;;;;;;;;;;;;;;;;;;5113907;28;761;-66
2022/06/06 07:12:19;;;;;;;;;;;;;;;;;;5112445;28;1506;-66
2022/06/06 07:14:56;;;;;;;;;;;;;;;;;;5111594;28;1924;-66
2022/06/06 07:17:24;;;;;;;;;;;;;;;;;;5111886;28;1201;-66
2022/06/06 07:19:58;;;;;;;;;;;;;;;;;;5113615;28;749;-66
2022/06/06 07:22:24;;;;;;;;;;;;;;;;;;5113139;28;793;-66
2022/06/06 07:24:55;;;;;;;;;;;;;;;;;;5113333;28;950;-67
2022/06/06 07:27:20;;;;;;;;;;;;;;;;;;5112752;28;1091;-66
2022/06/06 07:29:45;;;;;;;;;;;;;;;;;;5111236;28;1313;-67
2022/06/06 07:32:26;;;;;;;;;;;;;;;;;;5111742;28;884;-66
2022/06/06 07:35:00;;;;;;;;;;;;;;;;;;5112262;28;2035;-66
2022/06/06 07:37:37;;;;;;;;;;;;;;;;;;5111806;28;947;-67
2022/06/06 07:40:08;;;;;;;;;;;;;;;;;;5111206;28;1185;-66
2022/06/06 07:42:48;;;;;;;;;;;;;;;;;;5112693;28;843;-67
2022/06/06 07:45:19;;;;;;;;;;;;;;;;;;5113366;28;864;-66
2022/06/06 07:48:07;;;;;;;;;;;;;;;;;;5113306;28;962;-65
2022/06/06 07:50:38;;;;;;;;;;;;;;;;;;5113479;28;1275;-66
2022/06/06 07:53:12;;;;;;;;;;;;;;;;;;5114113;28;844;-65
2022/06/06 07:55:46;;;;;;;;;;;;;;;;;;5111934;28;1893;-65
2022/06/06 07:58:14;;;;;;;;;;;;;;;;;;5113687;28;944;-65
2022/06/06 08:00:40;;;;;;;;;;;;;;;;;;5113452;28;1006;-65
2022/06/06 08:03:24;;;;;;;;;;;;;;;;;;5113808;27;785;-66
2022/06/06 08:06:25;;;;;;;;;;;;;;;;;;5112017;28;1303;-66
2022/06/06 08:09:12;;;;;;;;;;;;;;;;;;5070042;28;1107;-67
2022/06/06 08:11:42;;;;;;;;;;;;;;;;;;5097071;28;1901;-66
2022/06/06 08:14:19;;;;;;;;;;;;;;;;;;5081271;28;1906;-67
2022/06/06 08:17:08;;;;;;;;;;;;;;;;;;5075331;28;1419;-67
2022/06/06 08:19:50;;;;;;;;;;;;;;;;;;5120891;27;1293;-67
2022/06/06 08:22:15;;;;;;;;;;;;;;;;;;5112190;28;1074;-67
2022/06/06 08:24:43;;;;;;;;;;;;;;;;;;5111707;28;947;-67
2022/06/06 08:27:14;;;;;;;;;;;;;;;;;;5112181;28;907;-67
2022/06/06 08:29:41;;;;;;;;;;;;;;;;;;5111506;28;931;-67
2022/06/06 08:32:07;;;;;;;;;;;;;;;;;;5111642;28;825;-67
2022/06/06 08:34:33;;;;;;;;;;;;;;;;;;5111138;28;1914;-68
2022/06/06 08:36:58;;;;;;;;;;;;;;;;;;5112045;28;844;-67
2022/06/06 08:39:34;;;;;;;;;;;;;;;;;;5111780;28;817;-67
2022/06/06 08:42:10;;;;;;;;;;;;;;;;;;5112437;28;793;-67
2022/06/06 08:44:56;;;;;;;;;;;;;;;;;;5111925;28;904;-68
2022/06/06 08:47:24;;;;;;;;;;;;;;;;;;5111664;28;1047;-67
2022/06/06 08:52:48;;;;;;;;;;;;;;;;;;5111959;28;682;-67
2022/06/06 08:55:27;;;;;;;;;;;;;;;;;;5111831;28;1956;-67
2022/06/06 08:58:11;;;;;;;;;;;;;;;;;;5110058;28;1437;-68
2022/06/06 09:00:48;;;;;;;;;;;;;;;;;;5108899;28;1390;-67
2022/06/06 09:03:25;;;;;;;;;;;;;;;;;;5095998;28;1194;-66
2022/06/06 09:06:09;;;;;;;;;;;;;;;;;;5090782;28;1151;-66
2022/06/06 09:08:57;;;;;;;;;;;;;;;;;;5090763;28;1015;-66
2022/06/06 09:11:41;;;;;;;;;;;;;;;;;;5091257;28;1405;-67
2022/06/06 09:14:09;;;;;;;;;;;;;;;;;;5091155;28;1902;-67
2022/06/06 09:16:49;;;;;;;;;;;;;;;;;;5089478;28;1257;-66
2022/06/06 09:19:32;;;;;;;;;;;;;;;;;;5091264;28;1086;-66
2022/06/06 09:22:14;;;;;;;;;;;;;;;;;;5090869;28;863;-67
2022/06/06 09:24:40;;;;;;;;;;;;;;;;;;5089356;28;1159;-66
2022/06/06 09:27:23;;;;;;;;;;;;;;;;;;5090612;28;860;-67
2022/06/06 09:30:00;;;;;;;;;;;;;;;;;;5090670;28;848;-66
2022/06/06 09:32:38;;;;;;;;;;;;;;;;;;5088750;28;1222;-66
2022/06/06 09:35:12;;;;;;;;;;;;;;;;;;5089598;28;1975;-67
2022/06/06 09:37:40;;;;;;;;;;;;;;;;;;5090954;28;825;-67
2022/06/06 09:40:24;;;;;;;;;;;;;;;;;;5091209;28;963;-67
2022/06/06 09:42:52;;;;;;;;;;;;;;;;;;5089157;28;1422;-67
2022/06/06 09:45:20;;;;;;;;;;;;;;;;;;5089426;28;1384;-68
2022/06/06 09:48:04;;;;;;;;;;;;;;;;;;5091071;28;881;-67
2022/06/06 09:50:56;;;;;;;;;;;;;;;;;;5090411;28;1355;-68
2022/06/06 09:53:26;;;;;;;;;;;;;;;;;;5090632;28;825;-68
2022/06/06 09:59:04;;;;;;;;;;;;;;;;;;5090611;28;699;-67
2022/06/06 10:01:32;;;;;;;;;;;;;;;;;;5092557;28;814;-68
2022/06/06 10:04:16;;;;;;;;;;;;;;;;;;5094082;28;896;-67
2022/06/06 10:06:59;;;;;;;;;;;;;;;;;;5093921;28;844;-67
2022/06/06 10:09:27;;;;;;;;;;;;;;;;;;5094108;28;848;-68
2022/06/06 10:12:11;;;;;;;;;;;;;;;;;;5092459;28;1286;-67
2022/06/06 10:14:37;;;;;;;;;;;;;;;;;;5093622;28;1971;-67
2022/06/06 10:17:21;;;;;;;;;;;;;;;;;;5093763;28;840;-67
2022/06/06 10:19:49;;;;;;;;;;;;;;;;;;5093886;28;903;-66
2022/06/06 10:22:26;;;;;;;;;;;;;;;;;;5093246;28;778;-66
2022/06/06 10:24:51;;;;;;;;;;;;;;;;;;5093582;28;1054;-67
2022/06/06 10:27:16;;;;;;;;;;;;;;;;;;5093696;28;888;-66
2022/06/06 10:32:31;;;;;;;;;;;;;;;;;;5093449;28;630;-66
2022/06/06 10:35:19;;;;;;;;;;;;;;;;;;5093342;28;1974;-67
2022/06/06 10:37:50;;;;;;;;;;;;;;;;;;5093477;28;1354;-67
2022/06/06 10:40:25;;;;;;;;;;;;;;;;;;5091826;28;1497;-67
2022/06/06 10:43:00;;;;;;;;;;;;;;;;;;5091723;28;1419;-67
2022/06/06 10:45:51;;;;;;;;;;;;;;;;;;5091692;28;1222;-66
2022/06/06 10:48:25;;;;;;;;;;;;;;;;;;5090592;28;956;-67
2022/06/06 10:53:58;;;;;;;;;;;;;;;;;;5093393;28;2218;-67
2022/06/06 10:56:23;;;;;;;;;;;;;;;;;;5093683;28;934;-67
2022/06/06 10:59:03;;;;;;;;;;;;;;;;;;5093826;28;990;-67
2022/06/06 11:01:28;;;;;;;;;;;;;;;;;;5091763;28;1459;-68
2022/06/06 11:04:23;;;;;;;;;;;;;;;;;;5093291;28;1003;-67
2022/06/06 11:07:00;;;;;;;;;;;;;;;;;;5038865;28;1345;-67
2022/06/06 11:09:44;;;;;;;;;;;;;;;;;;5091519;28;1301;-66
2022/06/06 11:12:09;;;;;;;;;;;;;;;;;;5092781;28;1014;-67
2022/06/06 11:14:36;;;;;;;;;;;;;;;;;;5091558;28;1965;-67
2022/06/06 11:17:20;;;;;;;;;;;;;;;;;;5092792;28;1286;-67
2022/06/06 11:20:04;;;;;;;;;;;;;;;;;;5101587;28;1115;-68
2022/06/06 11:22:36;;;;;;;;;;;;;;;;;;5097914;28;1336;-68
2022/06/06 11:25:06;;;;;;;;;;;;;;;;;;5091451;28;1115;-68
2022/06/06 11:27:38;;;;;;;;;;;;;;;;;;5090638;28;1051;-68
2022/06/06 11:30:03;;;;;;;;;;;;;;;;;;5092750;28;958;-68
2022/06/06 11:32:28;;;;;;;;;;;;;;;;;;5092172;28;856;-67
2022/06/06 11:35:07;;;;;;;;;;;;;;;;;;5092527;28;1913;-67
2022/06/06 11:37:41;;;;;;;;;;;;;;;;;;5091851;28;892;-68
2022/06/06 11:40:07;;;;;;;;;;;;;;;;;;5092246;28;773;-67
2022/06/06 11:42:35;;;;;;;;;;;;;;;;;;5091974;28;907;-67
2022/06/06 11:45:09;;;;;;;;;;;;;;;;;;5091925;28;786;-67
2022/06/06 11:47:35;;;;;;;;;;;;;;;;;;5090198;28;1357;-67
2022/06/06 11:50:00;;;;;;;;;;;;;;;;;;5092563;28;1050;-68
2022/06/06 11:53:01;;;;;;;;;;;;;;;;;;5091767;28;876;-68
2022/06/06 11:55:45;;;;;;;;;;;;;;;;;;5031851;28;1905;-67
2022/06/06 11:58:43;;;;;;;;;;;;;;;;;;5088456;28;1119;-68
2022/06/06 12:01:28;;;;;;;;;;;;;;;;;;5091977;28;888;-67
2022/06/06 12:04:08;;;;;;;;;;;;;;;;;;5091492;28;945;-67
2022/06/06 12:06:50;;;;;;;;;;;;;;;;;;5091173;28;904;-67
2022/06/06 12:09:24;;;;;;;;;;;;;;;;;;5089978;28;1198;-67
2022/06/06 12:12:08;;;;;;;;;;;;;;;;;;5091102;28;971;-67
2022/06/06 12:14:43;;;;;;;;;;;;;;;;;;5090776;28;1902;-67
2022/06/06 12:17:20;;;;;;;;;;;;;;;;;;5091777;28;903;-67
2022/06/06 12:20:18;;;;;;;;;;;;;;;;;;5091055;28;923;-68
2022/06/06 12:22:48;;;;;;;;;;;;;;;;;;5067693;28;1269;-67
2022/06/06 12:25:26;;;;;;;;;;;;;;;;;;5091042;28;844;-67
2022/06/06 12:28:01;;;;;;;;;;;;;;;;;;5091108;28;1002;-68
2022/06/06 12:30:32;;;;;;;;;;;;;;;;;;5090739;28;853;-68
2022/06/06 12:32:58;;;;;;;;;;;;;;;;;;5091297;28;903;-68
2022/06/06 12:35:24;;;;;;;;;;;;;;;;;;5091095;28;1897;-68
2022/06/06 12:37:49;;;;;;;;;;;;;;;;;;5091086;28;903;-67
2022/06/06 12:40:17;;;;;;;;;;;;;;;;;;5091300;28;900;-68
2022/06/06 12:43:06;;;;;;;;;;;;;;;;;;5091356;28;1026;-67
2022/06/06 12:45:50;;;;;;;;;;;;;;;;;;5085208;28;1076;-68
2022/06/06 12:48:26;;;;;;;;;;;;;;;;;;5091588;28;863;-67
2022/06/06 12:51:06;;;;;;;;;;;;;;;;;;5089767;28;1185;-68
2022/06/06 12:53:50;;;;;;;;;;;;;;;;;;5091013;28;911;-67
2022/06/06 12:56:30;;;;;;;;;;;;;;;;;;5091338;28;611;-67
2022/06/06 12:59:17;;;;;;;;;;;;;;;;;;5090855;28;864;-68
2022/06/06 13:01:49;;;;;;;;;;;;;;;;;;5088855;28;1333;-68
2022/06/06 13:04:21;;;;;;;;;;;;;;;;;;5090766;28;933;-68
2022/06/06 13:06:52;;;;;;;;;;;;;;;;;;5090536;28;765;-68
2022/06/06 13:09:36;;;;;;;;;;;;;;;;;;5091121;28;828;-68
2022/06/06 13:12:01;;;;;;;;;;;;;;;;;;5090831;28;966;-68
2022/06/06 13:14:45;;;;;;;;;;;;;;;;;;5088608;28;1952;-67
2022/06/06 13:17:34;;;;;;;;;;;;;;;;;;5090853;28;887;-68
2022/06/06 13:20:03;;;;;;;;;;;;;;;;;;5084546;28;1225;-67
2022/06/06 13:22:34;;;;;;;;;;;;;;;;;;5090153;28;801;-68
2022/06/06 13:25:18;;;;;;;;;;;;;;;;;;5090555;28;892;-68
2022/06/06 13:27:56;;;;;;;;;;;;;;;;;;5089839;28;1015;-68
2022/06/06 13:30:23;;;;;;;;;;;;;;;;;;5090700;28;908;-67
2022/06/06 13:32:49;;;;;;;;;;;;;;;;;;5090128;28;900;-68
2022/06/06 13:35:27;;;;;;;;;;;;;;;;;;5090606;28;1906;-67
2022/06/06 13:38:17;;;;;;;;;;;;;;;;;;5094042;28;903;-68
2022/06/06 13:40:49;;;;;;;;;;;;;;;;;;5093820;28;903;-67
2022/06/06 13:43:23;;;;;;;;;;;;;;;;;;5094451;28;853;-68
2022/06/06 13:45:52;;;;;;;;;;;;;;;;;;5093614;28;1070;-67
2022/06/06 13:48:21;;;;;;;;;;;;;;;;;;5094064;28;899;-68
2022/06/06 13:50:52;;;;;;;;;;;;;;;;;;5093405;28;923;-68
2022/06/06 13:53:41;;;;;;;;;;;;;;;;;;5094055;28;1007;-68
2022/06/06 13:56:09;;;;;;;;;;;;;;;;;;5093021;28;1949;-68
2022/06/06 13:58:36;;;;;;;;;;;;;;;;;;5092378;28;1189;-66
2022/06/06 14:01:07;;;;;;;;;;;;;;;;;;5092807;28;1323;-67
2022/06/06 14:03:45;;;;;;;;;;;;;;;;;;5094116;28;798;-67
2022/06/06 14:06:16;;;;;;;;;;;;;;;;;;5094470;28;987;-67
2022/06/06 14:08:55;;;;;;;;;;;;;;;;;;5094175;28;1058;-67
2022/06/06 14:11:35;;;;;;;;;;;;;;;;;;5094941;28;947;-67
2022/06/06 14:14:01;;;;;;;;;;;;;;;;;;5094453;28;1958;-67
2022/06/06 14:16:29;;;;;;;;;;;;;;;;;;5092621;28;1207;-66
2022/06/06 14:18:58;;;;;;;;;;;;;;;;;;5093212;28;1391;-67
2022/06/06 14:21:29;;;;;;;;;;;;;;;;;;5093506;28;1309;-65
2022/06/06 14:24:14;;;;;;;;;;;;;;;;;;5093387;28;1448;-66
2022/06/06 14:26:39;;;;;;;;;;;;;;;;;;5094881;28;825;-66
2022/06/06 14:29:22;;;;;;;;;;;;;;;;;;5094879;28;809;-65
2022/06/06 14:31:54;;;;;;;;;;;;;;;;;;5094555;28;852;-66
2022/06/06 14:34:38;;;;;;;;;;;;;;;;;;5092837;28;1910;-65
2022/06/06 14:37:05;;;;;;;;;;;;;;;;;;5095030;28;974;-65
2022/06/06 14:39:31;;;;;;;;;;;;;;;;;;5093813;28;1493;-66
2022/06/06 14:41:57;;;;;;;;;;;;;;;;;;5093445;28;1248;-65
2022/06/06 14:44:38;;;;;;;;;;;;;;;;;;5127753;27;816;-65
2022/06/06 14:47:20;;;;;;;;;;;;;;;;;;5091799;28;1260;-66
2022/06/06 14:50:45;;;;;;;;;;;;;;;;;;5094266;28;824;-65
2022/06/06 14:52:34;;;;;;;;;;;;;;;;;;5093703;28;664;-66
2022/06/06 14:55:01;;;;;;;;;;;;;;;;;;5092389;28;1975;-66
2022/06/06 14:57:28;;;;;;;;;;;;;;;;;;5091985;28;1364;-66
2022/06/06 14:59:54;;;;;;;;;;;;;;;;;;5092112;28;1832;-67
2022/06/06 15:02:22;;;;;;;;;;;;;;;;;;5093326;28;991;-66
2022/06/06 15:04:48;;;;;;;;;;;;;;;;;;5091295;28;1115;-67
2022/06/06 15:07:16;;;;;;;;;;;;;;;;;;5093032;28;882;-67
2022/06/06 15:09:44;;;;;;;;;;;;;;;;;;5090899;28;1390;-66
2022/06/06 15:12:23;;;;;;;;;;;;;;;;;;5093669;28;1003;-66
2022/06/06 15:14:49;;;;;;;;;;;;;;;;;;5125266;27;1909;-66
2022/06/06 15:17:14;;;;;;;;;;;;;;;;;;5125675;27;833;-66
2022/06/06 15:19:41;;;;;;;;;;;;;;;;;;5092648;28;930;-66
2022/06/06 15:22:13;;;;;;;;;;;;;;;;;;5092784;28;987;-67
2022/06/06 15:24:43;;;;;;;;;;;;;;;;;;5092350;28;994;-67
2022/06/06 15:27:26;;;;;;;;;;;;;;;;;;5092723;28;841;-67
2022/06/06 15:30:00;;;;;;;;;;;;;;;;;;5092648;28;947;-66
2022/06/06 15:32:41;;;;;;;;;;;;;;;;;;5092559;28;951;-66
2022/06/06 15:35:09;;;;;;;;;;;;;;;;;;5092519;28;1980;-67
2022/06/06 15:37:34;;;;;;;;;;;;;;;;;;5090948;28;1363;-67
2022/06/06 15:40:15;;;;;;;;;;;;;;;;;;5092321;28;1049;-67
2022/06/06 15:42:49;;;;;;;;;;;;;;;;;;5092443;28;1018;-66
2022/06/06 15:45:20;;;;;;;;;;;;;;;;;;5093235;28;928;-67
2022/06/06 15:47:51;;;;;;;;;;;;;;;;;;5092449;28;880;-67
2022/06/06 15:50:17;;;;;;;;;;;;;;;;;;5092541;28;876;-68
2022/06/06 15:52:42;;;;;;;;;;;;;;;;;;5091845;28;860;-67
2022/06/06 15:55:29;;;;;;;;;;;;;;;;;;5091336;28;1965;-67
2022/06/06 15:57:58;;;;;;;;;;;;;;;;;;5091664;28;829;-68
2022/06/06 16:00:37;;;;;;;;;;;;;;;;;;5090618;28;1243;-67
2022/06/06 16:03:21;;;;;;;;;;;;;;;;;;5091162;28;1376;-67
2022/06/06 16:05:47;;;;;;;;;;;;;;;;;;5091897;28;852;-66
2022/06/06 16:08:27;;;;;;;;;;;;;;;;;;5092141;28;981;-66
2022/06/06 16:10:58;;;;;;;;;;;;;;;;;;5092041;28;1032;-66
2022/06/06 16:13:40;;;;;;;;;;;;;;;;;;5092425;28;872;-67
2022/06/06 16:16:24;;;;;;;;;;;;;;;;;;5091931;28;1902;-66
2022/06/06 16:19:01;;;;;;;;;;;;;;;;;;5091569;28;899;-66
2022/06/06 16:21:35;;;;;;;;;;;;;;;;;;5090576;28;1179;-66
2022/06/06 16:24:05;;;;;;;;;;;;;;;;;;5091566;28;955;-66
2022/06/06 16:26:37;;;;;;;;;;;;;;;;;;5107133;28;1398;-67
2022/06/06 16:29:12;;;;;;;;;;;;;;;;;;5091534;28;911;-67
2022/06/06 16:31:39;;;;;;;;;;;;;;;;;;5091697;28;899;-67
2022/06/06 16:34:12;;;;;;;;;;;;;;;;;;5091213;28;1910;-67
2022/06/06 16:36:57;;;;;;;;;;;;;;;;;;5104999;28;1187;-67
2022/06/06 16:39:33;;;;;;;;;;;;;;;;;;5071469;28;887;-66
2022/06/06 16:48:00;;;;;;;;;;;;;;;;;;5071027;28;814;-67
2022/06/06 16:50:44;;;;;;;;;;;;;;;;;;5071739;28;939;-67
2022/06/06 16:53:28;;;;;;;;;;;;;;;;;;5071621;28;844;-67
2022/06/06 16:56:02;;;;;;;;;;;;;;;;;;5070879;28;1905;-66
2022/06/06 16:58:39;;;;;;;;;;;;;;;;;;5071343;28;829;-66
2022/06/06 17:01:24;;;;;;;;;;;;;;;;;;5071826;28;959;-67
2022/06/06 17:03:51;;;;;;;;;;;;;;;;;;5070625;28;1456;-67
2022/06/06 17:09:10;;;;;;;;;;;;;;;;;;5071075;28;631;-68
2022/06/06 17:11:42;;;;;;;;;;;;;;;;;;5074459;28;1050;-68
2022/06/06 17:14:26;;;;;;;;;;;;;;;;;;5073671;28;1874;-67
2022/06/06 17:16:57;;;;;;;;;;;;;;;;;;5075018;28;904;-67
2022/06/06 17:19:25;;;;;;;;;;;;;;;;;;5075036;28;841;-67
2022/06/06 17:21:57;;;;;;;;;;;;;;;;;;5075101;28;757;-68
2022/06/06 17:24:23;;;;;;;;;;;;;;;;;;5075149;28;908;-67
2022/06/06 17:26:54;;;;;;;;;;;;;;;;;;5074919;28;777;-67
2022/06/06 17:29:42;;;;;;;;;;;;;;;;;;5073581;28;1301;-68
2022/06/06 17:32:13;;;;;;;;;;;;;;;;;;5075763;28;1623;-67
2022/06/06 17:34:40;;;;;;;;;;;;;;;;;;5073898;28;1951;-67
2022/06/06 17:37:11;;;;;;;;;;;;;;;;;;5075310;28;833;-67
2022/06/06 17:39:39;;;;;;;;;;;;;;;;;;5075237;28;841;-67
2022/06/06 17:42:07;;;;;;;;;;;;;;;;;;5074989;28;861;-66
2022/06/06 17:44:37;;;;;;;;;;;;;;;;;;5075035;28;762;-67
2022/06/06 17:47:06;;;;;;;;;;;;;;;;;;5073532;28;1170;-67
2022/06/06 17:49:41;;;;;;;;;;;;;;;;;;5074421;28;809;-67
2022/06/06 17:52:16;;;;;;;;;;;;;;;;;;5073060;28;1184;-67
2022/06/06 17:54:48;;;;;;;;;;;;;;;;;;5073706;28;1957;-67
2022/06/06 17:57:19;;;;;;;;;;;;;;;;;;5072700;28;1377;-67
2022/06/06 18:00:05;;;;;;;;;;;;;;;;;;5073988;28;998;-67
2022/06/06 18:02:39;;;;;;;;;;;;;;;;;;5073966;28;872;-66
2022/06/06 18:05:23;;;;;;;;;;;;;;;;;;5073983;28;841;-67
2022/06/06 18:08:03;;;;;;;;;;;;;;;;;;5073752;28;1067;-67
2022/06/06 18:10:29;;;;;;;;;;;;;;;;;;5073889;28;997;-67
2022/06/06 18:12:57;;;;;;;;;;;;;;;;;;5073557;28;832;-67
2022/06/06 18:15:31;;;;;;;;;;;;;;;;;;5073085;28;1901;-66
2022/06/06 18:18:01;;;;;;;;;;;;;;;;;;5085855;28;1445;-66
2022/06/06 18:20:26;;;;;;;;;;;;;;;;;;5092110;28;1151;-66
2022/06/06 18:22:52;;;;;;;;;;;;;;;;;;5090769;28;1148;-66
2022/06/06 18:25:21;;;;;;;;;;;;;;;;;;5092230;28;1210;-66
2022/06/06 18:27:46;;;;;;;;;;;;;;;;;;5093693;28;942;-66
2022/06/06 18:30:31;;;;;;;;;;;;;;;;;;5094034;28;1163;-65